To NAV CANADA Home Page Login to a new session Search on AWWS site Feedback and Comments Disclaimer Vers la page française équivalente Tips FAQ What's new on the site To the Forecasts and Observations / NOTAM section To "File a Flight Plan" website Publications and other links Update of the User's profile FIC Telephone Numbers My Weather Data Folder Route Weather Data Regional Weather Data Local Weather Data To the Forecasts and Observations / NOTAM section
Request Generated 02/11/2016 at 04:13:10 UTC . Weather information available at that time is displayed.

METAR/TAF

LA RONGE/LA RONGE (BARBER FIELD)/SK    

METAR CYVC 110400Z 00000KT 15SM BKN030 M21/M23 A3033 RMK SC5 SLP315=
METAR CYVC 110300Z 00000KT 15SM SCT030 M21/M24 A3034 RMK SC4 SLP316=
METAR CYVC 110200Z 00000KT 15SM FEW030 M21/M23 A3035 RMK SC2 SLP320=

TAF CYVC 110038Z 1101/1113 35005KT P6SM BKN030 TEMPO 1101/1103 5SM
-SN OVC020
FM110300 01005KT P6SM FEW030 TEMPO 1103/1105 5SM -SN BKN020
FM110500 32005KT P6SM SKC
RMK NXT FCST BY 110700Z=
Your time UTC time
Weather data provided by Environment Canada and NAV CANADA